Time;durP1;ratioP1;P1;durP2;ratioP2;P2;SDS_P1;SDS_P2;PMS_P1;PMS_P2;Temp;Humidity;BMP_temperature;BMP_pressure;BME280_temperature;BME280_humidity;BME280_pressure;Samples;Min_cycle;Max_cycle;Signal;HPM_P1;HPM_P2
2023/05/06 00:00:47;;;;;;;;;4.50;4.00;;;;;;;;2037626;27;2741927;-73
2023/05/06 00:02:01;;;;;;;;;5.00;3.50;;;;;;;;2045449;27;2748201;-73
2023/05/06 00:03:14;;;;;;;;;4.50;3.33;;;;;;;;2046792;27;2736716;-73
2023/05/06 00:04:27;;;;;;;;;6.17;4.67;;;;;;;;2044763;27;2747219;-73
2023/05/06 00:05:41;;;;;;;;;2.83;2.50;;;;;;;;2039337;27;2725801;-73
2023/05/06 00:06:52;;;;;;;;;4.00;4.00;;;;;;;;2017503;27;2752455;-73
2023/05/06 00:08:02;;;;;;;;;4.33;4.00;;;;;;;;2041607;27;2741936;-73
2023/05/06 00:09:13;;;;;;;;;4.00;4.00;;;;;;;;2053659;27;2752371;-73
2023/05/06 00:10:24;;;;;;;;;5.00;5.00;;;;;;;;2059959;27;2750321;-73
2023/05/06 00:11:37;;;;;;;;;5.17;5.17;;;;;;;;2069349;27;2745080;-73
2023/05/06 00:12:50;;;;;;;;;5.00;4.50;;;;;;;;2042299;27;2747148;-73
2023/05/06 00:14:03;;;;;;;;;6.50;4.00;;;;;;;;2035690;27;2745058;-73
2023/05/06 00:15:16;;;;;;;;;5.67;4.83;;;;;;;;2037589;27;2738823;-73
2023/05/06 00:16:26;;;;;;;;;4.00;4.00;;;;;;;;2010807;27;3459607;-73
2023/05/06 00:17:37;;;;;;;;;4.67;4.67;;;;;;;;2058329;27;2741951;-73
2023/05/06 00:18:50;;;;;;;;;6.00;4.17;;;;;;;;2059102;27;2743046;-73
2023/05/06 00:20:04;;;;;;;;;4.50;4.50;;;;;;;;2054419;27;2740241;-73
2023/05/06 00:21:15;;;;;;;;;5.00;5.00;;;;;;;;2017806;27;2746115;-73
2023/05/06 00:22:26;;;;;;;;;5.00;5.00;;;;;;;;2067045;27;2748213;-73
2023/05/06 00:23:36;;;;;;;;;5.00;4.00;;;;;;;;2060194;27;2729456;-73
2023/05/06 00:24:47;;;;;;;;;7.00;4.00;;;;;;;;2037073;27;2740883;-73
2023/05/06 00:25:58;;;;;;;;;4.00;4.00;;;;;;;;2053391;27;2746102;-73
2023/05/06 00:27:09;;;;;;;;;8.00;5.00;;;;;;;;2068589;27;2746107;-73
2023/05/06 00:28:22;;;;;;;;;6.17;4.33;;;;;;;;2068856;27;2735670;-73
2023/05/06 00:29:32;;;;;;;;;7.33;5.33;;;;;;;;2019886;27;2742989;-73
2023/05/06 00:30:43;;;;;;;;;4.00;4.00;;;;;;;;2067721;27;2741956;-73
2023/05/06 00:31:53;;;;;;;;;6.33;5.00;;;;;;;;2031933;27;2748157;-73
2023/05/06 00:33:04;;;;;;;;;6.00;4.33;;;;;;;;2058587;27;2746194;-73
2023/05/06 00:34:15;;;;;;;;;2.67;2.67;;;;;;;;2059100;27;2733634;-73
2023/05/06 00:35:28;;;;;;;;;6.80;6.00;;;;;;;;2062262;27;2738833;-73
2023/05/06 00:36:41;;;;;;;;;6.17;5.17;;;;;;;;2069119;27;2745059;-73
2023/05/06 00:38:05;;;;;;;;;7.50;6.00;;;;;;;;2045814;27;2732026;-73
2023/05/06 00:39:18;;;;;;;;;5.83;5.17;;;;;;;;2045938;27;2742988;-73
2023/05/06 00:40:29;;;;;;;;;5.67;4.67;;;;;;;;2011392;27;2747182;-73
2023/05/06 00:41:40;;;;;;;;;9.00;6.00;;;;;;;;2057766;27;2745495;-73
2023/05/06 00:42:50;;;;;;;;;7.67;6.33;;;;;;;;2068388;27;2740958;-73
2023/05/06 00:44:01;;;;;;;;;9.33;8.00;;;;;;;;2034707;27;3466918;-73
2023/05/06 00:45:12;;;;;;;;;7.00;6.00;;;;;;;;2057457;27;2737918;-73
2023/05/06 00:46:23;;;;;;;;;9.33;7.00;;;;;;;;2074750;27;1820035;-73
2023/05/06 00:47:34;;;;;;;;;9.25;7.50;;;;;;;;2054658;27;1817070;-73
2023/05/06 00:48:44;;;;;;;;;7.67;7.67;;;;;;;;2047395;27;1833589;-73
2023/05/06 00:49:55;;;;;;;;;9.33;7.00;;;;;;;;2031774;27;3465912;-73
2023/05/06 00:51:07;;;;;;;;;9.67;8.00;;;;;;;;2062874;27;2745192;-73
2023/05/06 00:52:19;;;;;;;;;8.00;6.00;;;;;;;;2069201;27;2731515;-73
2023/05/06 00:53:29;;;;;;;;;6.33;6.33;;;;;;;;2019888;27;2745059;-73
2023/05/06 00:54:40;;;;;;;;;7.67;6.67;;;;;;;;2068430;27;2737753;-73
2023/05/06 00:55:51;;;;;;;;;10.00;7.67;;;;;;;;2040746;27;3478353;-73
2023/05/06 00:57:02;;;;;;;;;6.00;6.00;;;;;;;;2074012;27;1823204;-73
2023/05/06 00:58:13;;;;;;;;;9.50;9.50;;;;;;;;2040714;27;2775880;-73
2023/05/06 00:59:25;;;;;;;;;10.40;8.00;;;;;;;;2074725;27;1819083;-73
2023/05/06 01:00:39;;;;;;;;;7.00;7.00;;;;;;;;2036192;27;2739853;-73
2023/05/06 01:01:51;;;;;;;;;13.00;8.75;;;;;;;;2016414;27;1849239;-73
2023/05/06 01:03:04;;;;;;;;;9.67;6.83;;;;;;;;2061465;27;2740911;-73
2023/05/06 01:04:15;;;;;;;;;8.00;8.00;;;;;;;;2034450;27;1848163;-73
2023/05/06 01:05:30;;;;;;;;;7.50;7.25;;;;;;;;2025042;27;1831491;-73
2023/05/06 01:06:55;;;;;;;;;5.67;5.33;;;;;;;;2033820;27;3457532;-73
2023/05/06 01:08:14;;;;;;;;;6.00;6.00;;;;;;;;2035546;27;2727349;-73
2023/05/06 01:09:32;;;;;;;;;8.33;8.00;;;;;;;;2069748;27;2736736;-73
2023/05/06 01:10:48;;;;;;;;;8.00;8.00;;;;;;;;2033488;27;1836221;-73
2023/05/06 01:12:15;;;;;;;;;8.75;8.00;;;;;;;;2056855;27;1843106;-73
2023/05/06 01:13:33;;;;;;;;;7.00;7.00;;;;;;;;2038204;27;2742427;-73
2023/05/06 01:14:58;;;;;;;;;10.00;8.50;;;;;;;;2056247;27;1830628;-73
2023/05/06 01:16:09;;;;;;;;;5.67;5.67;;;;;;;;2041591;27;2748174;-73
2023/05/06 01:17:23;;;;;;;;;9.67;6.67;;;;;;;;2048849;27;3452846;-73
2023/05/06 01:18:34;;;;;;;;;8.00;8.00;;;;;;;;2042591;27;2749285;-73
2023/05/06 01:19:48;;;;;;;;;8.00;7.50;;;;;;;;2060458;27;2738832;-73
2023/05/06 01:21:03;;;;;;;;;6.67;6.67;;;;;;;;2030221;27;2739869;-73
2023/05/06 01:22:17;;;;;;;;;8.67;5.67;;;;;;;;2036873;27;2740946;-73
2023/05/06 01:23:48;;;;;;;;;5.33;3.50;;;;;;;;2037602;27;2750694;-73
2023/05/06 01:24:59;;;;;;;;;10.33;8.67;;;;;;;;2015232;27;2753496;-73
2023/05/06 01:26:09;;;;;;;;;5.67;5.33;;;;;;;;2066936;27;2740194;-73
2023/05/06 01:27:20;;;;;;;;;7.67;7.67;;;;;;;;2043421;27;3457567;-73
2023/05/06 01:28:31;;;;;;;;;10.00;6.67;;;;;;;;2062215;27;3469020;-73
2023/05/06 01:29:42;;;;;;;;;9.00;8.00;;;;;;;;2064767;27;1828375;-73
2023/05/06 01:30:56;;;;;;;;;7.00;7.00;;;;;;;;2034247;27;2736759;-73
2023/05/06 01:32:20;;;;;;;;;6.00;6.00;;;;;;;;2061346;27;2728434;-73
2023/05/06 01:33:41;;;;;;;;;6.67;6.33;;;;;;;;2065591;27;2736715;-73
2023/05/06 01:34:56;;;;;;;;;6.67;6.00;;;;;;;;2045559;27;2733035;-73
2023/05/06 01:36:27;;;;;;;;;4.83;4.83;;;;;;;;2040646;27;2748204;-73
2023/05/06 01:37:43;;;;;;;;;8.33;7.00;;;;;;;;2015083;27;2749330;-73
2023/05/06 01:39:02;;;;;;;;;8.33;6.17;;;;;;;;2059993;27;2738807;-73
2023/05/06 01:40:16;;;;;;;;;8.00;7.50;;;;;;;;2039453;27;2736755;-73
2023/05/06 01:41:30;;;;;;;;;7.33;5.67;;;;;;;;2019504;27;2746117;-73
2023/05/06 01:42:40;;;;;;;;;8.00;7.00;;;;;;;;2041601;27;3453366;-73
2023/05/06 01:43:52;;;;;;;;;6.33;6.00;;;;;;;;2051659;27;3454403;-73
2023/05/06 01:45:03;;;;;;;;;9.33;6.33;;;;;;;;2042032;27;3467968;-73
2023/05/06 01:46:18;;;;;;;;;4.50;4.50;;;;;;;;2068708;27;2752359;-73
2023/05/06 01:47:31;;;;;;;;;7.67;7.67;;;;;;;;2045743;27;2739845;-73
2023/05/06 01:48:45;;;;;;;;;6.50;6.00;;;;;;;;2045738;27;2728383;-73
2023/05/06 01:50:00;;;;;;;;;8.50;7.17;;;;;;;;2045537;27;2736735;-73
2023/05/06 01:51:10;;;;;;;;;11.00;7.00;;;;;;;;2018448;27;3477376;-73
2023/05/06 01:52:21;;;;;;;;;5.67;5.33;;;;;;;;2067823;27;2737782;-73
2023/05/06 01:53:34;;;;;;;;;6.83;5.33;;;;;;;;2064583;27;2745064;-73
2023/05/06 01:54:47;;;;;;;;;6.33;6.00;;;;;;;;2044661;27;2736812;-73
2023/05/06 01:56:00;;;;;;;;;8.17;6.00;;;;;;;;2045686;27;2735714;-73
2023/05/06 01:57:13;;;;;;;;;6.17;6.17;;;;;;;;2037170;27;2728399;-73
2023/05/06 01:58:26;;;;;;;;;6.50;5.00;;;;;;;;2037782;27;2746103;-73
2023/05/06 01:59:39;;;;;;;;;6.00;5.17;;;;;;;;2045128;27;2745094;-73
2023/05/06 02:00:49;;;;;;;;;6.00;5.00;;;;;;;;2002025;27;3455456;-73
2023/05/06 02:02:00;;;;;;;;;7.67;6.33;;;;;;;;2055232;27;2734648;-73
2023/05/06 02:03:12;;;;;;;;;6.80;6.80;;;;;;;;2055433;27;2738799;-73
2023/05/06 02:04:25;;;;;;;;;6.50;4.17;;;;;;;;2037752;27;2746106;-73
2023/05/06 02:05:38;;;;;;;;;7.17;5.33;;;;;;;;2033042;27;2745069;-73
2023/05/06 02:06:51;;;;;;;;;5.50;5.50;;;;;;;;2052165;27;2746102;-73
2023/05/06 02:08:01;;;;;;;;;8.00;5.00;;;;;;;;2032146;27;2740952;-73
2023/05/06 02:09:12;;;;;;;;;7.33;5.00;;;;;;;;2060229;27;2737786;-73
2023/05/06 02:10:25;;;;;;;;;6.60;6.60;;;;;;;;2065622;27;2730489;-73
2023/05/06 02:11:35;;;;;;;;;5.00;5.00;;;;;;;;2003073;27;2752378;-73
2023/05/06 02:12:46;;;;;;;;;5.33;4.00;;;;;;;;2052130;27;2747674;-73
2023/05/06 02:14:00;;;;;;;;;7.17;5.83;;;;;;;;2059757;27;2739872;-73
2023/05/06 02:15:11;;;;;;;;;5.00;4.67;;;;;;;;2027072;27;2752365;-73
2023/05/06 02:16:22;;;;;;;;;7.67;7.00;;;;;;;;2048894;27;2753533;-73
2023/05/06 02:17:36;;;;;;;;;7.00;6.00;;;;;;;;2059909;27;2740882;-73
2023/05/06 02:18:49;;;;;;;;;5.50;5.17;;;;;;;;2069103;27;2734660;-73
2023/05/06 02:19:59;;;;;;;;;6.00;5.00;;;;;;;;2019158;27;2742973;-73
2023/05/06 02:21:10;;;;;;;;;4.00;4.00;;;;;;;;2066919;27;2752395;-73
2023/05/06 02:22:21;;;;;;;;;6.00;4.67;;;;;;;;2057453;27;2746101;-73
2023/05/06 02:23:32;;;;;;;;;4.00;4.00;;;;;;;;2061543;27;2748180;-73
2023/05/06 02:24:43;;;;;;;;;4.67;4.67;;;;;;;;2068846;27;2740898;-73
2023/05/06 02:25:56;;;;;;;;;6.20;5.80;;;;;;;;2053752;27;2742985;-73
2023/05/06 02:27:10;;;;;;;;;5.00;4.33;;;;;;;;2037075;27;2732556;-73
2023/05/06 02:28:23;;;;;;;;;5.50;5.50;;;;;;;;2046568;27;2746101;-73
2023/05/06 02:29:36;;;;;;;;;5.00;4.33;;;;;;;;2046900;27;2749215;-73
2023/05/06 02:30:47;;;;;;;;;6.00;4.33;;;;;;;;2019650;27;3458602;-73
2023/05/06 02:31:58;;;;;;;;;6.67;5.00;;;;;;;;2066533;27;2746228;-73
2023/05/06 02:33:08;;;;;;;;;8.00;7.00;;;;;;;;2069141;27;2734659;-73
2023/05/06 02:34:21;;;;;;;;;5.00;5.00;;;;;;;;2067183;27;2746102;-73
2023/05/06 02:35:31;;;;;;;;;4.33;4.00;;;;;;;;2014416;27;2743070;-73
2023/05/06 02:36:42;;;;;;;;;5.00;5.00;;;;;;;;2051535;28;2747170;-73
2023/05/06 02:37:52;;;;;;;;;8.00;4.00;;;;;;;;2032361;27;3472169;-73
2023/05/06 02:39:03;;;;;;;;;4.00;4.00;;;;;;;;2056985;27;2754520;-73
2023/05/06 02:40:14;;;;;;;;;6.00;5.00;;;;;;;;2060667;27;2739873;-73
2023/05/06 02:41:24;;;;;;;;;5.33;4.33;;;;;;;;2034036;27;2750268;-73
2023/05/06 02:42:35;;;;;;;;;6.00;4.00;;;;;;;;2052515;27;2747223;-73
2023/05/06 02:43:45;;;;;;;;;5.67;5.67;;;;;;;;2036540;27;2748205;-73
2023/05/06 02:44:56;;;;;;;;;5.00;5.00;;;;;;;;2067404;27;2746131;-73
2023/05/06 02:46:07;;;;;;;;;6.00;4.33;;;;;;;;2052016;27;3459628;-73
2023/05/06 02:47:18;;;;;;;;;5.00;4.67;;;;;;;;2049208;27;2748253;-73
2023/05/06 02:48:29;;;;;;;;;3.67;3.33;;;;;;;;2065662;27;2737761;-73
2023/05/06 02:49:42;;;;;;;;;4.17;4.17;;;;;;;;2069583;27;2747151;-73
2023/05/06 02:50:52;;;;;;;;;4.67;4.00;;;;;;;;2043364;27;2748233;-73
2023/05/06 02:52:04;;;;;;;;;3.67;3.67;;;;;;;;2068113;27;2750265;-73
2023/05/06 02:53:15;;;;;;;;;6.25;5.75;;;;;;;;2069470;27;2738817;-73
2023/05/06 02:54:26;;;;;;;;;5.00;5.00;;;;;;;;2043149;27;2746151;-73
2023/05/06 02:55:38;;;;;;;;;6.80;4.80;;;;;;;;2068902;27;2746120;-73
2023/05/06 02:56:51;;;;;;;;;5.00;4.83;;;;;;;;2069231;27;2739884;-73
2023/05/06 02:58:04;;;;;;;;;5.17;4.83;;;;;;;;2045566;27;2742984;-73
2023/05/06 02:59:15;;;;;;;;;6.00;4.00;;;;;;;;2005109;27;2745563;-73
2023/05/06 03:00:26;;;;;;;;;6.33;4.00;;;;;;;;2060594;27;2744045;-73
2023/05/06 03:01:39;;;;;;;;;5.17;5.17;;;;;;;;2047911;27;2740949;-73
2023/05/06 03:02:49;;;;;;;;;4.00;4.00;;;;;;;;2033852;27;3457548;-73
2023/05/06 03:04:00;;;;;;;;;5.33;5.00;;;;;;;;2058181;27;2744041;-73
2023/05/06 03:05:11;;;;;;;;;8.67;4.33;;;;;;;;2055810;27;2747132;-73
2023/05/06 03:06:22;;;;;;;;;6.33;4.67;;;;;;;;2060418;27;2746128;-73
2023/05/06 03:07:35;;;;;;;;;5.80;5.80;;;;;;;;2069163;27;2746471;-73
2023/05/06 03:08:45;;;;;;;;;8.00;6.00;;;;;;;;2019739;27;3464847;-73
2023/05/06 03:09:56;;;;;;;;;5.33;5.00;;;;;;;;2051102;27;2744027;-73
2023/05/06 03:11:07;;;;;;;;;4.33;4.00;;;;;;;;2052908;27;2742992;-73
2023/05/06 03:12:19;;;;;;;;;6.20;5.00;;;;;;;;2065533;27;2745088;-73
2023/05/06 03:13:32;;;;;;;;;5.17;5.00;;;;;;;;2043198;27;2740898;-73
2023/05/06 03:14:45;;;;;;;;;5.17;3.83;;;;;;;;2045705;27;2746465;-73
2023/05/06 03:15:55;;;;;;;;;5.33;5.00;;;;;;;;2020940;27;2740967;-73
2023/05/06 03:17:06;;;;;;;;;5.67;5.00;;;;;;;;2066392;27;2740913;-73
2023/05/06 03:18:17;;;;;;;;;6.00;4.67;;;;;;;;2055277;27;2748205;-73
2023/05/06 03:19:28;;;;;;;;;5.33;4.00;;;;;;;;2060076;27;2735713;-73
2023/05/06 03:20:40;;;;;;;;;7.40;4.40;;;;;;;;2068940;27;2740925;-73
2023/05/06 03:21:50;;;;;;;;;7.00;5.67;;;;;;;;2011647;27;2732565;-73
2023/05/06 03:23:01;;;;;;;;;5.67;5.67;;;;;;;;2050178;27;3459994;-73
2023/05/06 03:24:12;;;;;;;;;8.00;5.33;;;;;;;;2059808;27;2739846;-73
2023/05/06 03:25:23;;;;;;;;;6.00;4.00;;;;;;;;2068810;27;2746113;-73
2023/05/06 03:26:36;;;;;;;;;3.50;3.50;;;;;;;;2068418;27;2741916;-73
2023/05/06 03:27:49;;;;;;;;;5.33;4.50;;;;;;;;2067512;27;2748193;-73
2023/05/06 03:29:02;;;;;;;;;4.83;4.83;;;;;;;;2040058;27;2743022;-73
2023/05/06 03:30:15;;;;;;;;;5.00;4.00;;;;;;;;2044012;27;2746116;-73
2023/05/06 03:31:28;;;;;;;;;6.00;4.67;;;;;;;;2029200;27;2739923;-73
2023/05/06 03:32:41;;;;;;;;;5.17;5.17;;;;;;;;2038748;27;2748205;-73
2023/05/06 03:33:54;;;;;;;;;4.33;3.67;;;;;;;;2045574;27;2746110;-73
2023/05/06 03:35:07;;;;;;;;;5.00;4.67;;;;;;;;2036006;27;2752375;-73
2023/05/06 03:36:18;;;;;;;;;4.67;4.00;;;;;;;;2008161;27;2746114;-73
2023/05/06 03:37:29;;;;;;;;;5.00;5.00;;;;;;;;2068747;27;2747174;-73
2023/05/06 03:38:42;;;;;;;;;9.00;5.67;;;;;;;;2069644;27;2751365;-73
2023/05/06 03:39:55;;;;;;;;;6.00;6.00;;;;;;;;2037653;27;2736804;-73
2023/05/06 03:41:08;;;;;;;;;6.00;5.00;;;;;;;;2061362;27;2737796;-73
2023/05/06 03:42:21;;;;;;;;;4.50;4.33;;;;;;;;2046346;27;2740918;-73
2023/05/06 03:43:31;;;;;;;;;7.00;5.00;;;;;;;;2020221;27;2752415;-73
2023/05/06 03:44:42;;;;;;;;;5.33;5.33;;;;;;;;2066811;27;2740948;-73
2023/05/06 03:45:53;;;;;;;;;6.00;5.00;;;;;;;;2068292;27;2739844;-73
2023/05/06 03:47:04;;;;;;;;;5.00;5.00;;;;;;;;2043307;27;2750280;-73
2023/05/06 03:48:14;;;;;;;;;6.00;4.00;;;;;;;;2051826;27;2749231;-73
2023/05/06 03:49:25;;;;;;;;;6.00;6.00;;;;;;;;2052578;27;2739868;-73
2023/05/06 03:50:36;;;;;;;;;5.67;3.00;;;;;;;;2035206;27;2748198;-73
2023/05/06 03:51:47;;;;;;;;;4.00;3.00;;;;;;;;2046105;27;2739948;-73
2023/05/06 03:52:57;;;;;;;;;4.33;4.00;;;;;;;;2047943;27;2748206;-73
2023/05/06 03:54:08;;;;;;;;;5.67;4.67;;;;;;;;2061171;27;2750285;-73
2023/05/06 03:55:19;;;;;;;;;7.33;3.67;;;;;;;;2061991;27;2755567;-73
2023/05/06 03:56:30;;;;;;;;;5.00;4.00;;;;;;;;2057677;27;2754441;-73
2023/05/06 03:57:41;;;;;;;;;5.33;4.67;;;;;;;;2068517;27;2745067;-73
2023/05/06 03:58:54;;;;;;;;;6.67;5.83;;;;;;;;2068684;27;2748213;-72
2023/05/06 04:00:05;;;;;;;;;5.33;5.00;;;;;;;;2043747;27;2752355;-73
2023/05/06 04:01:17;;;;;;;;;5.00;5.00;;;;;;;;2050722;27;2748982;-73
2023/05/06 04:02:30;;;;;;;;;5.83;5.17;;;;;;;;2069562;27;2737765;-73
2023/05/06 04:03:43;;;;;;;;;4.83;4.83;;;;;;;;2044955;27;2746205;-73
2023/05/06 04:04:53;;;;;;;;;8.33;6.00;;;;;;;;2012104;27;2746103;-73
2023/05/06 04:06:04;;;;;;;;;6.33;5.33;;;;;;;;2060703;27;2745061;-73
2023/05/06 04:07:17;;;;;;;;;7.83;6.00;;;;;;;;2053956;27;2733622;-73
2023/05/06 04:08:28;;;;;;;;;5.33;4.33;;;;;;;;2005309;27;2742005;-73
2023/05/06 04:09:39;;;;;;;;;7.00;5.67;;;;;;;;2059719;27;2724237;-73
2023/05/06 04:10:52;;;;;;;;;6.67;6.17;;;;;;;;2061517;27;2732583;-73
2023/05/06 04:12:02;;;;;;;;;5.00;5.00;;;;;;;;2021084;27;2751440;-73
2023/05/06 04:13:13;;;;;;;;;5.00;5.00;;;;;;;;2053205;27;3453370;-73
2023/05/06 04:14:24;;;;;;;;;8.67;5.67;;;;;;;;2062588;27;2745627;-73
2023/05/06 04:15:35;;;;;;;;;5.67;4.00;;;;;;;;2052425;27;2748185;-73
2023/05/06 04:16:47;;;;;;;;;6.00;5.75;;;;;;;;2062907;27;2750265;-73
2023/05/06 04:18:00;;;;;;;;;6.17;5.83;;;;;;;;2062661;27;2739879;-73
2023/05/06 04:19:10;;;;;;;;;7.00;6.33;;;;;;;;2019096;27;2743020;-73
2023/05/06 04:20:21;;;;;;;;;5.67;5.00;;;;;;;;2065806;27;2743087;-73
2023/05/06 04:21:32;;;;;;;;;8.00;5.00;;;;;;;;2068450;27;2745068;-73
2023/05/06 04:22:42;;;;;;;;;5.33;5.33;;;;;;;;2021541;27;2746480;-73
2023/05/06 04:23:53;;;;;;;;;6.00;6.00;;;;;;;;2068648;27;2732579;-73
2023/05/06 04:25:07;;;;;;;;;7.83;5.67;;;;;;;;2068364;27;2742973;-73
2023/05/06 04:26:20;;;;;;;;;7.83;5.67;;;;;;;;2070061;27;2731540;-73
2023/05/06 04:27:33;;;;;;;;;6.00;6.00;;;;;;;;2045912;27;2743042;-73
2023/05/06 04:28:43;;;;;;;;;6.67;5.00;;;;;;;;2014716;27;2752340;-73
2023/05/06 04:29:54;;;;;;;;;4.00;4.00;;;;;;;;2061010;27;2740897;-73
2023/05/06 04:31:07;;;;;;;;;6.33;5.00;;;;;;;;2069445;27;2744518;-73
2023/05/06 04:32:18;;;;;;;;;7.33;6.33;;;;;;;;2019582;27;3440901;-73
2023/05/06 04:33:29;;;;;;;;;6.67;6.00;;;;;;;;2065468;27;2742036;-73
2023/05/06 04:34:40;;;;;;;;;5.67;5.00;;;;;;;;2067814;27;2749247;-73
2023/05/06 04:35:53;;;;;;;;;6.50;6.17;;;;;;;;2068190;27;2739880;-73
2023/05/06 04:37:04;;;;;;;;;4.00;4.00;;;;;;;;2012148;27;2738807;-73
2023/05/06 04:38:14;;;;;;;;;7.67;5.00;;;;;;;;2042301;27;2746101;-73
2023/05/06 04:39:25;;;;;;;;;7.67;5.00;;;;;;;;2058276;27;2746168;-73
2023/05/06 04:40:38;;;;;;;;;7.00;6.67;;;;;;;;2053670;27;2744423;-73
2023/05/06 04:41:48;;;;;;;;;8.00;7.00;;;;;;;;2034905;27;2733702;-73
2023/05/06 04:42:59;;;;;;;;;7.00;7.00;;;;;;;;2059559;27;2729447;-73
2023/05/06 04:44:10;;;;;;;;;7.33;5.67;;;;;;;;2036052;27;2743029;-73
2023/05/06 04:45:24;;;;;;;;;7.33;5.00;;;;;;;;2052793;27;2745128;-73
2023/05/06 04:46:36;;;;;;;;;8.83;7.17;;;;;;;;2061883;27;2733599;-73
2023/05/06 04:47:51;;;;;;;;;7.00;6.50;;;;;;;;2036008;27;2732612;-73
2023/05/06 04:49:04;;;;;;;;;6.67;6.67;;;;;;;;2037897;27;2738854;-73
2023/05/06 04:50:17;;;;;;;;;6.33;6.33;;;;;;;;2061085;27;2737780;-73
2023/05/06 04:51:27;;;;;;;;;8.33;5.67;;;;;;;;2007365;27;2742097;-73
2023/05/06 04:52:38;;;;;;;;;12.33;7.00;;;;;;;;2055022;27;2750900;-73
2023/05/06 04:53:49;;;;;;;;;5.67;5.67;;;;;;;;2052561;27;2731539;-73
2023/05/06 04:54:59;;;;;;;;;8.67;6.00;;;;;;;;2010570;27;2734771;-73
2023/05/06 04:56:10;;;;;;;;;6.33;6.00;;;;;;;;2060296;27;2727392;-73
2023/05/06 04:57:22;;;;;;;;;5.60;5.60;;;;;;;;2067120;27;2741972;-73
2023/05/06 04:58:35;;;;;;;;;8.00;6.67;;;;;;;;2043461;27;2738803;-73
2023/05/06 04:59:46;;;;;;;;;6.00;5.67;;;;;;;;2019914;27;2744008;-73
2023/05/06 05:00:57;;;;;;;;;6.67;4.00;;;;;;;;2068527;27;2746106;-73
2023/05/06 05:02:10;;;;;;;;;6.17;6.17;;;;;;;;2066829;27;2740939;-73
2023/05/06 05:03:20;;;;;;;;;6.00;6.00;;;;;;;;2010311;27;3456601;-73
2023/05/06 05:04:31;;;;;;;;;10.33;6.00;;;;;;;;2050352;27;2759632;-73
2023/05/06 05:05:44;;;;;;;;;5.00;3.00;;;;;;;;2049941;27;2734063;-73
2023/05/06 05:06:57;;;;;;;;;6.83;5.83;;;;;;;;2052380;27;2739841;-73
2023/05/06 05:08:08;;;;;;;;;6.00;6.00;;;;;;;;2006174;27;2731631;-73
2023/05/06 05:09:18;;;;;;;;;7.00;5.00;;;;;;;;2039966;27;3461715;-73
2023/05/06 05:10:29;;;;;;;;;6.00;6.00;;;;;;;;2058757;27;2737789;-73
2023/05/06 05:11:39;;;;;;;;;5.00;4.33;;;;;;;;2033328;27;2747152;-73
2023/05/06 05:12:50;;;;;;;;;5.67;5.67;;;;;;;;2054324;27;2745084;-73
2023/05/06 05:14:01;;;;;;;;;7.00;7.00;;;;;;;;2044203;27;2729019;-73
2023/05/06 05:15:12;;;;;;;;;10.00;6.00;;;;;;;;2065296;27;2759724;-73
2023/05/06 05:16:23;;;;;;;;;7.33;6.33;;;;;;;;2066316;27;2727350;-73
2023/05/06 05:17:36;;;;;;;;;8.17;7.50;;;;;;;;2047040;27;2739880;-73
2023/05/06 05:18:47;;;;;;;;;8.00;7.25;;;;;;;;2057229;27;1816963;-73
2023/05/06 05:20:00;;;;;;;;;8.67;8.67;;;;;;;;2060578;27;2739857;-73
2023/05/06 05:21:13;;;;;;;;;6.67;6.33;;;;;;;;2038264;27;2737781;-73
2023/05/06 05:22:24;;;;;;;;;6.00;6.00;;;;;;;;2034289;27;1817003;-73
2023/05/06 05:23:35;;;;;;;;;8.33;6.00;;;;;;;;2042709;27;2751385;-73
2023/05/06 05:24:46;;;;;;;;;7.67;7.00;;;;;;;;2064590;27;2746182;-73
2023/05/06 05:25:56;;;;;;;;;8.67;7.00;;;;;;;;2067070;27;2736783;-73
2023/05/06 05:27:09;;;;;;;;;6.60;6.60;;;;;;;;2060227;27;2735160;-73
2023/05/06 05:28:22;;;;;;;;;8.17;7.67;;;;;;;;2044549;27;2730486;-73
2023/05/06 05:29:33;;;;;;;;;6.67;6.00;;;;;;;;2019115;27;2740891;-73
2023/05/06 05:30:43;;;;;;;;;7.33;7.33;;;;;;;;2067122;27;2734637;-73
2023/05/06 05:31:54;;;;;;;;;7.00;7.00;;;;;;;;2042541;27;2738879;-73
2023/05/06 05:33:05;;;;;;;;;7.00;5.67;;;;;;;;2058468;27;2738857;-73
2023/05/06 05:34:15;;;;;;;;;6.33;5.00;;;;;;;;2012166;27;3462806;-73
2023/05/06 05:35:26;;;;;;;;;7.00;6.67;;;;;;;;2053029;27;2728406;-73
2023/05/06 05:36:36;;;;;;;;;7.00;5.00;;;;;;;;2027141;27;2746206;-73
2023/05/06 05:37:48;;;;;;;;;10.33;8.33;;;;;;;;2059393;27;2748531;-73
2023/05/06 05:39:01;;;;;;;;;7.33;7.33;;;;;;;;2061496;27;2736742;-73
2023/05/06 05:40:11;;;;;;;;;11.33;8.00;;;;;;;;2015284;27;3467992;-73
2023/05/06 05:41:22;;;;;;;;;7.67;7.00;;;;;;;;2056488;27;2738803;-73
2023/05/06 05:42:33;;;;;;;;;10.33;7.67;;;;;;;;2067849;27;2748192;-73
2023/05/06 05:43:44;;;;;;;;;7.25;7.00;;;;;;;;2060153;27;1825342;-73
2023/05/06 05:44:54;;;;;;;;;7.00;6.33;;;;;;;;2041008;27;3450617;-73
2023/05/06 05:46:05;;;;;;;;;5.67;5.67;;;;;;;;2064595;27;2746142;-73
2023/05/06 05:47:16;;;;;;;;;8.00;8.00;;;;;;;;2066627;27;1832566;-73
2023/05/06 05:48:31;;;;;;;;;8.00;8.00;;;;;;;;2062011;27;2726299;-73
2023/05/06 05:49:41;;;;;;;;;8.00;7.00;;;;;;;;2008110;27;2508604;-73
2023/05/06 05:50:52;;;;;;;;;8.67;7.00;;;;;;;;2061212;27;2737805;-73
2023/05/06 05:52:03;;;;;;;;;7.00;6.00;;;;;;;;2038502;27;2742011;-73
2023/05/06 05:53:13;;;;;;;;;9.00;6.00;;;;;;;;2058921;27;3448229;-73
2023/05/06 05:54:24;;;;;;;;;8.00;8.00;;;;;;;;2054148;27;2741930;-73
2023/05/06 05:55:35;;;;;;;;;8.00;8.00;;;;;;;;2053451;27;2725270;-73
2023/05/06 05:56:46;;;;;;;;;8.33;8.33;;;;;;;;2063760;27;3459967;-73
2023/05/06 05:57:57;;;;;;;;;8.00;8.00;;;;;;;;2054651;27;2736194;-73
2023/05/06 05:59:07;;;;;;;;;9.67;9.67;;;;;;;;2045654;27;1840329;-73
2023/05/06 06:00:18;;;;;;;;;7.00;7.00;;;;;;;;2034112;27;3444007;-73
2023/05/06 06:01:29;;;;;;;;;9.00;8.00;;;;;;;;2055530;27;2750352;-73
2023/05/06 06:02:40;;;;;;;;;9.33;8.00;;;;;;;;2066712;27;3472147;-73
2023/05/06 06:03:52;;;;;;;;;8.50;8.00;;;;;;;;2061905;27;2735718;-73
2023/05/06 06:05:03;;;;;;;;;7.67;7.00;;;;;;;;2041652;27;3447107;-73
2023/05/06 06:06:14;;;;;;;;;9.00;9.00;;;;;;;;2062368;27;1841939;-73
2023/05/06 06:07:25;;;;;;;;;13.00;9.00;;;;;;;;2021164;28;3482519;-73
2023/05/06 06:08:36;;;;;;;;;9.67;8.00;;;;;;;;2053688;27;3462209;-73
2023/05/06 06:09:47;;;;;;;;;6.67;4.33;;;;;;;;2063982;27;2748319;-73
2023/05/06 06:11:04;;;;;;;;;7.00;7.00;;;;;;;;2060509;27;2744389;-73
2023/05/06 06:12:17;;;;;;;;;6.00;6.00;;;;;;;;2038376;27;2738806;-73
2023/05/06 06:13:30;;;;;;;;;9.00;7.83;;;;;;;;2043236;27;2732568;-73
2023/05/06 06:14:46;;;;;;;;;7.00;6.25;;;;;;;;2035863;27;1827379;-73
2023/05/06 06:15:57;;;;;;;;;9.67;8.33;;;;;;;;2036412;27;3473156;-71
2023/05/06 06:17:07;;;;;;;;;10.00;10.00;;;;;;;;2044687;27;3506633;-73
2023/05/06 06:18:19;;;;;;;;;9.67;8.00;;;;;;;;2047344;27;3472142;-73
2023/05/06 06:19:29;;;;;;;;;9.67;9.33;;;;;;;;2042791;27;2758711;-73
2023/05/06 06:20:40;;;;;;;;;7.00;7.00;;;;;;;;2064739;27;2748229;-73
2023/05/06 06:21:51;;;;;;;;;8.00;8.00;;;;;;;;2066296;27;2727357;-73
2023/05/06 06:23:02;;;;;;;;;9.00;9.00;;;;;;;;2067456;27;2744698;-73
2023/05/06 06:24:13;;;;;;;;;12.00;9.00;;;;;;;;2058133;27;2755450;-73
2023/05/06 06:25:24;;;;;;;;;10.33;8.00;;;;;;;;2047377;27;3484618;-73
2023/05/06 06:26:35;;;;;;;;;7.00;7.00;;;;;;;;2048539;27;2487763;-73
2023/05/06 06:27:46;;;;;;;;;10.00;9.00;;;;;;;;2066446;27;2763766;-73
2023/05/06 06:28:57;;;;;;;;;10.25;9.25;;;;;;;;2071977;27;1819123;-73
2023/05/06 06:30:07;;;;;;;;;9.00;8.50;;;;;;;;2029350;27;2748233;-73
2023/05/06 06:31:18;;;;;;;;;9.67;7.00;;;;;;;;2043681;27;3463194;-73
2023/05/06 06:32:29;;;;;;;;;9.00;9.00;;;;;;;;2075390;27;1821709;-73
2023/05/06 06:33:39;;;;;;;;;10.00;10.00;;;;;;;;2042506;27;2784649;-73
2023/05/06 06:34:50;;;;;;;;;9.33;7.00;;;;;;;;2039853;27;3470023;-73
2023/05/06 06:36:01;;;;;;;;;8.00;8.00;;;;;;;;2055198;27;2744063;-73
2023/05/06 06:37:12;;;;;;;;;9.00;9.00;;;;;;;;2052388;28;1818993;-73
2023/05/06 06:38:24;;;;;;;;;9.40;9.40;;;;;;;;2064802;27;1827510;-73
2023/05/06 06:39:35;;;;;;;;;11.00;9.50;;;;;;;;2007461;27;2775280;-73
2023/05/06 06:40:46;;;;;;;;;9.00;7.00;;;;;;;;2024473;27;2747200;-73
2023/05/06 06:42:03;;;;;;;;;7.00;7.00;;;;;;;;2070614;27;1832636;-73
2023/05/06 06:43:13;;;;;;;;;9.50;9.00;;;;;;;;2035843;27;2756522;-73
2023/05/06 06:44:24;;;;;;;;;9.00;9.00;;;;;;;;2056727;27;3461727;-73
2023/05/06 06:45:35;;;;;;;;;13.00;9.67;;;;;;;;2063185;27;1848907;-73
2023/05/06 06:46:45;;;;;;;;;7.50;7.00;;;;;;;;2040182;27;2730480;-73
2023/05/06 06:47:56;;;;;;;;;8.67;8.00;;;;;;;;2068172;27;3462728;-73
2023/05/06 06:49:07;;;;;;;;;6.50;6.50;;;;;;;;2048365;27;2728443;-73
2023/05/06 06:50:18;;;;;;;;;9.00;9.00;;;;;;;;2054109;27;2746190;-73
2023/05/06 06:51:30;;;;;;;;;12.33;9.33;;;;;;;;2059207;27;3496492;-73
2023/05/06 06:52:40;;;;;;;;;8.00;8.00;;;;;;;;2040191;27;2744144;-73
2023/05/06 06:53:52;;;;;;;;;11.00;11.00;;;;;;;;2065724;27;2791978;-73
2023/05/06 06:55:03;;;;;;;;;8.25;7.25;;;;;;;;2075198;27;1808146;-73
2023/05/06 06:56:14;;;;;;;;;9.00;8.75;;;;;;;;2021167;27;1833643;-73
2023/05/06 06:57:27;;;;;;;;;11.50;9.33;;;;;;;;2063137;27;1827372;-73
2023/05/06 06:58:38;;;;;;;;;9.50;7.00;;;;;;;;2010605;27;2752360;-73